Hua Shan, China
Current Conditions -  °F | °C
As of 12:00 PM on Sunday 26 Oct 2014 (Local Time) from ZLXY Reporting Station
Haze Haze  
Wind Chill: 72°   Ceiling: Unl
Heat Index: 72°   Visibility: 1.8mi
Dew Point: 54°   Wind: 2mph
Humidity: 53%   Direction: NA
Pressure: 30.12"   Gusts: NA
Location:  34.48°N, 110.08°E
Report Text: ZLXY 260400Z VRB01MPS 3000 HZ NSC 22/12 Q1020 NOSIG
Loading
Personal Weather Stations






























Interactive Weather Map
Tropical Storm Tracking
New forecast layout! Learn more

10-Day Weather Forecast

Advertisements
Track Severe Weather on mobile